Time;durP1;ratioP1;P1;durP2;ratioP2;P2;SDS_P1;SDS_P2;PMS_P1;PMS_P2;Temp;Humidity;BMP_temperature;BMP_pressure;BME280_temperature;BME280_humidity;BME280_pressure;Samples;Min_cycle;Max_cycle;Signal;HPM_P1;HPM_P2
2021/08/28 00:00:50;;;;;;;36.67;20.43;;;14.90;99.90;;;;;;4442873;32;20162;-73
2021/08/28 00:03:19;;;;;;;34.60;20.13;;;14.90;99.90;;;;;;4442242;32;20325;-76
2021/08/28 00:05:48;;;;;;;36.00;20.80;;;14.90;99.90;;;;;;4441163;32;20181;-75
2021/08/28 00:08:15;;;;;;;39.17;21.70;;;14.80;99.90;;;;;;4442478;32;20221;-76
2021/08/28 00:10:43;;;;;;;40.13;22.10;;;14.80;99.90;;;;;;4441037;32;20517;-76
2021/08/28 00:13:10;;;;;;;36.03;21.53;;;14.80;99.90;;;;;;4440530;32;20130;-76
2021/08/28 00:15:37;;;;;;;41.33;21.67;;;14.80;99.90;;;;;;4442022;32;20150;-76
2021/08/28 00:18:04;;;;;;;38.77;21.83;;;14.70;99.90;;;;;;4442929;32;20119;-76
2021/08/28 00:20:33;;;;;;;39.87;22.60;;;14.70;99.90;;;;;;4442776;32;20157;-76
2021/08/28 00:23:04;;;;;;;43.33;24.10;;;14.70;99.90;;;;;;4442412;32;20126;-75
2021/08/28 00:25:31;;;;;;;41.17;22.37;;;14.60;99.90;;;;;;4440860;32;20157;-75
2021/08/28 00:27:59;;;;;;;39.97;22.33;;;14.60;99.90;;;;;;4442611;32;20368;-75
2021/08/28 00:30:27;;;;;;;39.23;22.77;;;14.60;99.90;;;;;;4440792;32;20191;-76
2021/08/28 00:32:53;;;;;;;40.83;22.53;;;14.60;99.90;;;;;;4440937;32;20152;-76
2021/08/28 00:35:20;;;;;;;40.93;22.70;;;14.60;99.90;;;;;;4440225;32;20131;-76
2021/08/28 00:37:47;;;;;;;39.90;20.70;;;14.60;99.90;;;;;;4442305;32;20158;-76
2021/08/28 00:40:14;;;;;;;39.33;22.37;;;14.60;99.90;;;;;;4442149;32;20192;-76
2021/08/28 00:42:53;;;;;;;40.43;22.00;;;14.60;99.90;;;;;;4440382;32;20123;-76
2021/08/28 00:45:28;;;;;;;40.27;21.93;;;14.60;99.90;;;;;;4442247;32;20123;-75
2021/08/28 00:48:00;;;;;;;39.80;21.47;;;14.60;99.90;;;;;;4440066;32;20157;-75
2021/08/28 00:50:28;;;;;;;36.50;20.23;;;14.60;99.90;;;;;;4442091;32;20487;-76
2021/08/28 00:52:55;;;;;;;38.20;21.43;;;14.50;99.90;;;;;;4441266;32;20130;-76
2021/08/28 00:55:26;;;;;;;39.70;21.67;;;14.50;99.90;;;;;;4441053;32;20131;-76
2021/08/28 00:58:02;;;;;;;43.33;21.87;;;14.50;99.90;;;;;;4441790;32;20436;-75
2021/08/28 01:00:31;;;;;;;37.57;21.83;;;14.50;99.90;;;;;;4440386;32;20127;-76
2021/08/28 01:02:59;;;;;;;38.63;20.70;;;14.50;99.90;;;;;;4440673;32;20200;-76
2021/08/28 01:05:46;;;;;;;36.47;20.43;;;14.40;99.90;;;;;;4441576;32;20188;-75
2021/08/28 01:08:41;;;;;;;35.30;19.47;;;14.50;99.90;;;;;;4441323;32;20223;-77
2021/08/28 01:11:18;;;;;;;32.97;18.07;;;14.40;99.90;;;;;;4441281;32;20162;-74
2021/08/28 01:13:49;;;;;;;32.40;17.57;;;14.50;99.90;;;;;;4439779;32;20394;-76
2021/08/28 01:16:19;;;;;;;28.83;16.53;;;14.50;99.90;;;;;;4441527;32;20191;-76
2021/08/28 01:18:47;;;;;;;28.87;16.23;;;14.50;99.90;;;;;;4439900;32;20131;-76
2021/08/28 01:21:33;;;;;;;30.23;16.50;;;14.50;99.90;;;;;;4439545;32;20131;-76
2021/08/28 01:24:04;;;;;;;27.77;16.23;;;14.40;99.90;;;;;;4440979;32;20126;-76
2021/08/28 01:26:40;;;;;;;25.53;14.97;;;14.40;99.90;;;;;;4441470;32;20134;-75
2021/08/28 01:29:18;;;;;;;26.70;15.17;;;14.40;99.90;;;;;;4441249;32;20229;-76
2021/08/28 01:31:47;;;;;;;27.23;15.73;;;14.40;99.90;;;;;;4441718;32;20367;-75
2021/08/28 01:34:16;;;;;;;31.97;16.37;;;14.40;99.90;;;;;;4441542;32;20513;-75
2021/08/28 01:36:45;;;;;;;26.10;15.30;;;14.30;99.90;;;;;;4440985;32;20150;-74
2021/08/28 01:39:13;;;;;;;29.63;15.83;;;14.30;99.90;;;;;;4439461;32;20208;-74
2021/08/28 01:41:44;;;;;;;28.13;16.40;;;14.30;99.90;;;;;;4441456;32;20122;-75
2021/08/28 01:44:13;;;;;;;28.23;15.90;;;14.30;99.90;;;;;;4439663;32;20131;-74
2021/08/28 01:46:42;;;;;;;26.57;15.50;;;14.20;99.90;;;;;;4441512;32;20387;-74
2021/08/28 01:49:12;;;;;;;28.53;15.83;;;14.20;99.90;;;;;;4441387;32;20169;-73
2021/08/28 01:51:40;;;;;;;31.97;16.30;;;14.20;99.90;;;;;;4439359;32;20197;-74
2021/08/28 01:54:07;;;;;;;25.87;15.13;;;14.10;99.90;;;;;;4441257;32;20149;-74
2021/08/28 01:56:34;;;;;;;27.30;15.83;;;14.10;99.90;;;;;;4440087;32;20133;-74
2021/08/28 01:59:02;;;;;;;28.03;15.37;;;14.00;99.90;;;;;;4439697;32;20127;-74
2021/08/28 02:01:29;;;;;;;25.60;15.37;;;14.00;99.90;;;;;;4440659;32;20179;-74
2021/08/28 02:03:56;;;;;;;26.33;15.73;;;14.00;99.90;;;;;;4440626;32;20132;-74
2021/08/28 02:06:35;;;;;;;29.13;15.20;;;13.90;99.90;;;;;;4440426;32;20394;-74
2021/08/28 02:09:23;;;;;;;27.60;16.37;;;13.90;99.90;;;;;;4440125;32;20172;-74
2021/08/28 02:12:01;;;;;;;31.97;16.40;;;13.90;99.90;;;;;;4441283;32;20158;-75
2021/08/28 02:14:36;;;;;;;29.90;15.77;;;13.80;99.90;;;;;;4440939;32;20214;-74
2021/08/28 02:17:07;;;;;;;30.17;16.63;;;13.80;99.90;;;;;;4440985;32;20133;-74
2021/08/28 02:19:41;;;;;;;32.07;16.27;;;13.80;99.90;;;;;;4439047;32;20472;-74
2021/08/28 02:22:16;;;;;;;27.70;15.87;;;13.80;99.90;;;;;;4438941;32;20156;-74
2021/08/28 02:24:46;;;;;;;29.10;16.83;;;13.80;99.90;;;;;;4440879;32;20372;-74
2021/08/28 02:27:28;;;;;;;29.30;16.77;;;13.80;99.90;;;;;;4440910;32;20123;-75
2021/08/28 02:30:01;;;;;;;28.80;16.47;;;13.70;99.90;;;;;;4440713;32;20191;-75
2021/08/28 02:32:29;;;;;;;24.83;16.10;;;13.70;99.90;;;;;;4438914;32;20181;-75
2021/08/28 02:34:57;;;;;;;26.27;15.70;;;13.70;99.90;;;;;;4440569;32;20130;-75
2021/08/28 02:37:25;;;;;;;31.77;17.47;;;13.70;99.90;;;;;;4439212;32;20393;-74
2021/08/28 02:39:52;;;;;;;29.17;17.23;;;13.60;99.90;;;;;;4440152;32;20445;-75
2021/08/28 02:42:20;;;;;;;29.17;16.80;;;13.50;99.90;;;;;;4438908;32;20179;-75
2021/08/28 02:44:48;;;;;;;32.17;15.83;;;13.60;99.90;;;;;;4438709;32;20180;-76
2021/08/28 02:47:16;;;;;;;28.00;15.97;;;13.60;99.90;;;;;;4440943;32;20142;-75
2021/08/28 02:49:44;;;;;;;28.57;15.80;;;13.60;99.90;;;;;;4440362;32;20150;-75
2021/08/28 02:52:15;;;;;;;29.33;16.37;;;13.60;99.90;;;;;;4440313;32;20131;-75
2021/08/28 02:54:42;;;;;;;33.20;16.47;;;13.60;99.90;;;;;;4437673;32;20518;-76
2021/08/28 02:57:10;;;;;;;29.93;16.40;;;13.60;99.90;;;;;;4439930;32;20474;-75
2021/08/28 02:59:39;;;;;;;27.97;16.43;;;13.60;99.90;;;;;;4438992;32;20126;-75
2021/08/28 03:02:06;;;;;;;27.23;15.70;;;13.60;99.90;;;;;;4440714;32;20167;-75
2021/08/28 03:04:35;;;;;;;23.90;14.77;;;13.50;99.90;;;;;;4440606;32;20200;-75
2021/08/28 03:07:05;;;;;;;29.37;16.23;;;13.50;99.90;;;;;;4440534;32;20133;-75
2021/08/28 03:09:33;;;;;;;28.00;15.57;;;13.50;99.90;;;;;;4439369;32;20543;-75
2021/08/28 03:11:59;;;;;;;30.40;16.13;;;13.50;99.90;;;;;;4438884;32;20453;-74
2021/08/28 03:14:26;;;;;;;36.17;17.73;;;13.40;99.90;;;;;;4438860;32;20172;-74
2021/08/28 03:16:55;;;;;;;34.03;17.83;;;13.30;99.90;;;;;;4441937;32;20415;-75
2021/08/28 03:19:24;;;;;;;32.50;18.03;;;13.30;99.90;;;;;;4443623;32;20532;-76
2021/08/28 03:21:53;;;;;;;37.50;20.13;;;13.30;99.90;;;;;;4443010;32;20134;-75
2021/08/28 03:24:24;;;;;;;34.90;18.97;;;13.30;99.90;;;;;;4443152;32;20525;-75
2021/08/28 03:26:53;;;;;;;35.30;19.47;;;13.30;99.90;;;;;;4442747;32;20127;-75
2021/08/28 03:29:21;;;;;;;34.93;18.70;;;13.30;99.90;;;;;;4443421;32;20411;-75
2021/08/28 03:31:50;;;;;;;34.57;19.73;;;13.40;99.90;;;;;;4441347;32;20189;-75
2021/08/28 03:34:18;;;;;;;33.47;19.13;;;13.40;99.90;;;;;;4441825;32;20123;-75
2021/08/28 03:36:46;;;;;;;37.40;19.23;;;13.30;99.90;;;;;;4441564;32;20142;-75
2021/08/28 03:39:13;;;;;;;41.50;20.17;;;13.40;99.90;;;;;;4443223;32;20271;-75
2021/08/28 03:41:40;;;;;;;36.03;18.80;;;13.30;99.90;;;;;;4443293;32;20127;-73
2021/08/28 03:44:13;;;;;;;36.97;20.50;;;13.30;99.90;;;;;;4441261;32;20183;-74
2021/08/28 03:46:40;;;;;;;35.47;19.50;;;13.30;99.90;;;;;;4443356;32;20135;-74
2021/08/28 03:49:07;;;;;;;34.27;19.77;;;13.30;99.90;;;;;;4442651;32;20402;-74
2021/08/28 03:51:34;;;;;;;39.40;20.43;;;13.30;99.90;;;;;;4440894;32;20175;-74
2021/08/28 03:54:01;;;;;;;39.40;20.80;;;13.30;99.90;;;;;;4443070;32;20197;-74
2021/08/28 03:56:28;;;;;;;38.67;21.00;;;13.30;99.90;;;;;;4441362;32;20131;-74
2021/08/28 03:58:54;;;;;;;35.03;19.10;;;13.20;99.90;;;;;;4441355;32;20135;-74
2021/08/28 04:01:22;;;;;;;39.17;21.13;;;13.30;99.90;;;;;;4441717;32;20119;-74
2021/08/28 04:03:49;;;;;;;38.10;20.70;;;13.30;99.90;;;;;;4441012;32;20126;-74
2021/08/28 04:06:16;;;;;;;36.83;20.80;;;13.30;99.90;;;;;;4440342;32;20141;-74
2021/08/28 04:08:47;;;;;;;38.73;20.53;;;13.30;99.90;;;;;;4440642;32;20534;-75
2021/08/28 04:11:15;;;;;;;42.70;20.53;;;13.30;99.90;;;;;;4441400;32;20521;-75
2021/08/28 04:13:42;;;;;;;37.77;20.17;;;13.30;99.90;;;;;;4442980;32;20386;-75
2021/08/28 04:16:09;;;;;;;38.93;20.70;;;13.40;99.90;;;;;;4440994;32;20238;-75
2021/08/28 04:18:35;;;;;;;41.23;20.60;;;13.40;99.90;;;;;;4442653;32;20126;-75
2021/08/28 04:21:02;;;;;;;38.03;20.73;;;13.40;99.90;;;;;;4440929;32;20191;-75
2021/08/28 04:23:29;;;;;;;35.90;20.80;;;13.40;99.90;;;;;;4442632;32;20160;-74
2021/08/28 04:25:56;;;;;;;41.47;21.17;;;13.40;99.90;;;;;;4440728;32;20457;-75
2021/08/28 04:28:23;;;;;;;37.63;21.73;;;13.50;99.90;;;;;;4440497;32;20127;-75
2021/08/28 04:30:49;;;;;;;41.80;21.00;;;13.50;99.90;;;;;;4442631;32;20184;-75
2021/08/28 04:33:16;;;;;;;38.53;20.90;;;13.50;99.90;;;;;;4442315;32;20131;-74
2021/08/28 04:35:43;;;;;;;42.33;21.77;;;13.40;99.90;;;;;;4440700;32;20127;-74
2021/08/28 04:38:10;;;;;;;36.33;20.17;;;13.50;99.90;;;;;;4441359;32;20178;-74
2021/08/28 04:40:38;;;;;;;39.13;21.03;;;13.50;99.90;;;;;;4442376;32;20123;-74
2021/08/28 04:43:05;;;;;;;39.47;21.43;;;13.50;99.90;;;;;;4440758;32;20122;-73
2021/08/28 04:45:32;;;;;;;42.97;21.13;;;13.50;99.90;;;;;;4440810;32;20130;-73
2021/08/28 04:47:58;;;;;;;39.50;21.77;;;13.50;99.90;;;;;;4442190;32;20123;-73
2021/08/28 04:50:25;;;;;;;39.20;21.97;;;13.50;99.90;;;;;;4440314;32;20188;-73
2021/08/28 04:52:52;;;;;;;38.17;20.80;;;13.50;99.90;;;;;;4440204;32;20179;-73
2021/08/28 04:55:19;;;;;;;42.03;21.83;;;13.50;99.90;;;;;;4441587;32;20162;-73
2021/08/28 04:57:46;;;;;;;38.40;20.87;;;13.50;99.90;;;;;;4441844;32;20131;-74
2021/08/28 05:00:13;;;;;;;41.37;21.37;;;13.60;99.90;;;;;;4442286;32;20396;-74
2021/08/28 05:02:40;;;;;;;40.50;21.97;;;13.60;99.90;;;;;;4440113;32;20146;-74
2021/08/28 05:05:08;;;;;;;37.80;20.87;;;13.60;99.90;;;;;;4442051;32;20335;-73
2021/08/28 05:07:34;;;;;;;41.83;21.53;;;13.50;99.90;;;;;;4440478;32;20199;-73
2021/08/28 05:10:03;;;;;;;41.30;21.60;;;13.60;99.90;;;;;;4438899;32;20556;-73
2021/08/28 05:12:30;;;;;;;41.30;21.63;;;13.70;99.90;;;;;;4441974;32;20168;-73
2021/08/28 05:14:56;;;;;;;39.80;20.97;;;13.70;99.90;;;;;;4441944;32;20184;-73
2021/08/28 05:17:23;;;;;;;41.90;22.10;;;13.70;99.90;;;;;;4439699;32;20446;-73
2021/08/28 05:19:50;;;;;;;41.33;22.00;;;13.80;99.90;;;;;;4439782;32;20154;-73
2021/08/28 05:22:17;;;;;;;41.37;21.80;;;13.80;99.90;;;;;;4439779;32;20183;-73
2021/08/28 05:24:44;;;;;;;43.23;22.20;;;13.80;99.90;;;;;;4439743;32;20469;-74
2021/08/28 05:27:11;;;;;;;40.17;22.33;;;13.80;99.90;;;;;;4439761;32;20503;-75
2021/08/28 05:29:37;;;;;;;41.47;22.50;;;13.80;99.90;;;;;;4441299;32;20153;-75
2021/08/28 05:32:04;;;;;;;41.00;21.83;;;13.90;99.90;;;;;;4440966;32;20175;-75
2021/08/28 05:34:32;;;;;;;42.53;22.10;;;14.00;99.90;;;;;;4441717;32;20145;-76
2021/08/28 05:36:58;;;;;;;39.37;21.13;;;14.00;99.90;;;;;;4439760;32;20143;-75
2021/08/28 05:39:25;;;;;;;40.27;20.17;;;14.00;99.90;;;;;;4441341;32;20218;-75
2021/08/28 05:41:52;;;;;;;41.07;21.97;;;14.00;99.90;;;;;;4441663;32;20171;-75
2021/08/28 05:44:19;;;;;;;37.83;20.83;;;14.10;99.90;;;;;;4439540;32;20186;-77
2021/08/28 05:46:45;;;;;;;40.93;21.27;;;14.20;99.90;;;;;;4439686;32;20171;-77
2021/08/28 05:49:12;;;;;;;39.50;21.37;;;14.20;99.90;;;;;;4440826;32;20139;-77
2021/08/28 05:51:39;;;;;;;42.93;20.63;;;14.20;99.90;;;;;;4440090;32;20200;-76
2021/08/28 05:54:06;;;;;;;38.47;20.27;;;14.30;99.90;;;;;;4439735;32;20444;-76
2021/08/28 05:56:32;;;;;;;39.87;20.57;;;14.30;99.90;;;;;;4441250;32;20123;-75
2021/08/28 05:58:59;;;;;;;38.83;19.80;;;14.30;99.90;;;;;;4439508;32;20155;-77
2021/08/28 06:01:26;;;;;;;36.97;19.70;;;14.30;99.90;;;;;;4440854;32;20337;-77
2021/08/28 06:03:53;;;;;;;38.83;19.80;;;14.40;99.90;;;;;;4440737;32;20153;-76
2021/08/28 06:06:20;;;;;;;37.57;19.67;;;14.40;99.90;;;;;;4440799;32;20489;-77
2021/08/28 06:08:47;;;;;;;34.60;19.03;;;14.50;99.90;;;;;;4440204;32;20488;-77
2021/08/28 06:11:14;;;;;;;36.13;19.23;;;14.60;99.90;;;;;;4446918;32;20154;-78
2021/08/28 06:13:40;;;;;;;34.03;18.63;;;14.60;99.90;;;;;;4443672;32;20162;-76
2021/08/28 06:16:07;;;;;;;38.10;19.63;;;14.60;99.90;;;;;;4440890;32;20138;-76
2021/08/28 06:18:34;;;;;;;37.53;19.73;;;14.60;99.90;;;;;;4439560;32;20193;-76
2021/08/28 06:21:02;;;;;;;35.37;19.37;;;14.70;99.90;;;;;;4440983;32;20130;-76
2021/08/28 06:23:29;;;;;;;40.27;20.47;;;14.70;99.90;;;;;;4440983;32;20215;-76
2021/08/28 06:25:56;;;;;;;38.63;20.80;;;14.70;99.90;;;;;;4440613;32;20176;-76
2021/08/28 06:28:23;;;;;;;43.27;21.73;;;14.70;99.90;;;;;;4441230;32;20119;-76
2021/08/28 06:30:50;;;;;;;41.03;21.17;;;14.90;99.90;;;;;;4440736;32;20404;-76
2021/08/28 06:33:16;;;;;;;40.77;22.23;;;15.00;99.90;;;;;;4440310;32;20126;-76
2021/08/28 06:35:43;;;;;;;38.70;20.43;;;15.10;99.90;;;;;;4439538;32;20127;-77
2021/08/28 06:38:10;;;;;;;38.63;21.07;;;15.20;99.90;;;;;;4440398;32;20182;-76
2021/08/28 06:40:37;;;;;;;34.67;19.17;;;15.20;99.90;;;;;;4440704;32;20126;-76
2021/08/28 06:43:03;;;;;;;38.20;20.90;;;15.30;99.90;;;;;;4438848;32;20195;-76
2021/08/28 06:45:30;;;;;;;37.13;20.80;;;15.40;99.90;;;;;;4440414;32;20191;-76
2021/08/28 06:47:57;;;;;;;37.33;20.97;;;15.40;99.90;;;;;;4440771;32;20182;-76
2021/08/28 06:50:24;;;;;;;35.90;20.37;;;15.40;99.90;;;;;;4440834;32;20172;-75
2021/08/28 06:52:51;;;;;;;36.10;20.67;;;15.50;99.90;;;;;;4442142;32;20160;-75
2021/08/28 06:55:18;;;;;;;38.30;19.53;;;15.50;99.90;;;;;;4442262;32;20126;-76
2021/08/28 06:57:45;;;;;;;37.97;20.07;;;15.50;99.90;;;;;;4442059;32;20127;-76
2021/08/28 07:00:13;;;;;;;35.00;19.67;;;15.60;99.90;;;;;;4443546;32;20393;-76
2021/08/28 07:02:41;;;;;;;35.33;19.57;;;15.60;99.90;;;;;;4441776;32;20193;-76
2021/08/28 07:05:08;;;;;;;35.17;19.47;;;15.70;99.90;;;;;;4443499;32;20229;-76
2021/08/28 07:07:35;;;;;;;36.23;19.70;;;15.60;99.90;;;;;;4442985;32;20468;-76
2021/08/28 07:10:04;;;;;;;34.90;19.90;;;15.50;99.90;;;;;;4441692;32;20166;-76
2021/08/28 07:12:30;;;;;;;33.13;19.83;;;15.60;99.90;;;;;;4441765;32;20338;-76
2021/08/28 07:14:57;;;;;;;35.90;18.93;;;15.80;99.90;;;;;;4441671;32;20123;-76
2021/08/28 07:17:24;;;;;;;31.10;18.57;;;15.90;99.90;;;;;;4443348;32;20131;-76
2021/08/28 07:19:51;;;;;;;32.67;18.20;;;16.10;99.90;;;;;;4443508;32;20222;-76
2021/08/28 07:22:17;;;;;;;32.60;19.13;;;16.10;99.90;;;;;;4443453;32;20151;-76
2021/08/28 07:24:44;;;;;;;30.50;18.80;;;16.20;99.90;;;;;;4441757;32;20127;-75
2021/08/28 07:27:11;;;;;;;30.00;18.37;;;16.20;99.90;;;;;;4441982;32;20179;-75
2021/08/28 07:29:38;;;;;;;28.97;17.83;;;16.20;99.90;;;;;;4443138;32;20135;-76
2021/08/28 07:32:05;;;;;;;27.67;17.83;;;16.20;99.90;;;;;;4441861;32;20150;-76
2021/08/28 07:34:36;;;;;;;27.93;17.43;;;16.10;99.90;;;;;;4442344;32;20130;-76
2021/08/28 07:37:04;;;;;;;27.70;17.07;;;16.20;99.90;;;;;;4441618;32;20454;-76
2021/08/28 07:39:31;;;;;;;30.97;18.37;;;16.30;99.90;;;;;;4442795;32;20147;-76
2021/08/28 07:41:58;;;;;;;28.03;17.33;;;16.30;99.90;;;;;;4442633;32;20504;-76
2021/08/28 07:44:25;;;;;;;28.07;17.10;;;16.20;99.90;;;;;;4442994;32;20422;-76
2021/08/28 07:46:53;;;;;;;28.67;17.27;;;16.20;99.90;;;;;;4441414;32;20171;-76
2021/08/28 07:49:20;;;;;;;27.67;17.33;;;16.30;99.90;;;;;;4443152;32;20469;-76
2021/08/28 07:51:47;;;;;;;30.00;18.87;;;16.40;99.90;;;;;;4441473;32;20153;-76
2021/08/28 07:54:14;;;;;;;29.23;18.63;;;16.40;99.90;;;;;;4443316;32;20157;-76
2021/08/28 07:56:41;;;;;;;28.17;18.53;;;16.40;99.90;;;;;;4443171;32;20523;-76
2021/08/28 07:59:08;;;;;;;27.93;18.07;;;16.50;99.90;;;;;;4442395;32;20147;-76
2021/08/28 08:01:37;;;;;;;32.47;19.00;;;16.60;99.90;;;;;;4441170;32;20123;-76
2021/08/28 08:04:04;;;;;;;30.13;18.40;;;16.60;99.90;;;;;;4441599;32;20157;-76
2021/08/28 08:06:31;;;;;;;27.57;17.47;;;16.80;99.90;;;;;;4442727;32;20526;-76
2021/08/28 08:08:58;;;;;;;30.03;18.00;;;16.70;99.90;;;;;;4442356;32;20170;-76
2021/08/28 08:11:25;;;;;;;30.07;18.13;;;16.80;99.90;;;;;;4440876;32;20153;-76
2021/08/28 08:13:51;;;;;;;27.43;17.93;;;16.90;99.90;;;;;;4441505;32;20554;-76
2021/08/28 08:16:18;;;;;;;29.67;17.77;;;16.90;99.90;;;;;;4442463;32;20123;-76
2021/08/28 08:18:45;;;;;;;30.00;17.40;;;16.90;99.90;;;;;;4442666;32;20138;-76
2021/08/28 08:21:12;;;;;;;27.17;17.67;;;17.00;99.90;;;;;;4446806;32;20166;-76
2021/08/28 08:23:39;;;;;;;27.07;17.17;;;17.00;99.90;;;;;;4445251;32;20196;-76
2021/08/28 08:26:08;;;;;;;29.23;18.17;;;17.20;99.90;;;;;;4440873;32;20222;-76
2021/08/28 08:28:36;;;;;;;28.13;16.93;;;17.20;99.90;;;;;;4442312;32;20396;-76
2021/08/28 08:31:03;;;;;;;28.70;17.30;;;17.30;99.90;;;;;;4442375;32;20303;-77
2021/08/28 08:33:30;;;;;;;29.37;18.27;;;17.40;99.90;;;;;;4441592;32;20134;-77
2021/08/28 08:35:57;;;;;;;30.17;17.50;;;17.40;99.90;;;;;;4442442;32;20445;-76
2021/08/28 08:38:24;;;;;;;32.27;19.37;;;17.20;99.90;;;;;;4441608;32;20422;-75
2021/08/28 08:40:51;;;;;;;28.83;18.17;;;17.10;99.90;;;;;;4442421;32;20235;-76
2021/08/28 08:43:18;;;;;;;27.93;16.90;;;17.30;99.90;;;;;;4442113;32;20461;-76
2021/08/28 08:45:45;;;;;;;28.50;16.90;;;17.50;99.90;;;;;;4442072;32;20433;-75
2021/08/28 08:48:15;;;;;;;25.63;16.40;;;17.60;99.90;;;;;;4441475;32;20123;-76
2021/08/28 08:50:45;;;;;;;27.17;17.13;;;17.70;99.90;;;;;;4440353;32;20180;-77
2021/08/28 08:53:16;;;;;;;24.90;15.77;;;17.70;99.90;;;;;;4442656;32;20127;-76
2021/08/28 08:55:43;;;;;;;24.60;14.90;;;17.60;99.90;;;;;;4440037;32;20123;-76
2021/08/28 08:58:13;;;;;;;27.00;14.83;;;17.30;99.90;;;;;;4440909;32;20479;-82
2021/08/28 09:00:39;;;;;;;26.73;16.47;;;17.30;99.90;;;;;;4442391;32;20135;-80
2021/08/28 09:03:06;;;;;;;28.73;15.87;;;17.50;99.90;;;;;;4441715;32;20142;-82
2021/08/28 09:05:33;;;;;;;25.80;15.43;;;17.60;99.90;;;;;;4440465;32;20123;-81
2021/08/28 09:08:00;;;;;;;23.80;15.40;;;17.60;99.90;;;;;;4440970;32;20202;-82
2021/08/28 09:10:27;;;;;;;24.43;15.50;;;17.70;99.90;;;;;;4440152;32;20170;-82
2021/08/28 09:12:54;;;;;;;22.23;14.07;;;17.80;99.90;;;;;;4441455;32;20127;-77
2021/08/28 09:15:21;;;;;;;22.87;14.07;;;17.60;99.90;;;;;;4439791;32;20602;-79
2021/08/28 09:17:59;;;;;;;18.97;12.80;;;17.80;99.90;;;;;;4441443;32;20123;-79
2021/08/28 09:20:26;;;;;;;22.40;14.40;;;17.90;99.90;;;;;;4440641;32;20131;-79
2021/08/28 09:23:11;;;;;;;19.40;13.33;;;17.90;99.90;;;;;;4439897;32;20462;-79
2021/08/28 09:25:40;;;;;;;20.17;11.63;;;17.90;99.90;;;;;;4440586;32;20122;-79
2021/08/28 09:28:09;;;;;;;18.00;10.60;;;17.90;99.90;;;;;;4440664;32;20490;-82
2021/08/28 09:30:43;;;;;;;18.63;12.37;;;18.10;99.90;;;;;;4441321;32;20143;-82
2021/08/28 09:33:13;;;;;;;19.67;13.17;;;18.30;99.90;;;;;;4445667;32;20199;-81
2021/08/28 09:35:45;;;;;;;18.30;12.00;;;18.00;99.90;;;;;;4448648;32;20189;-81
2021/08/28 09:38:15;;;;;;;18.53;12.03;;;18.10;99.90;;;;;;4442945;32;20154;-81
2021/08/28 09:40:44;;;;;;;19.17;12.27;;;18.20;99.90;;;;;;4440251;32;20123;-80
2021/08/28 09:43:15;;;;;;;18.67;12.10;;;18.40;99.90;;;;;;4439840;32;20178;-81
2021/08/28 09:45:43;;;;;;;18.17;11.33;;;18.40;99.90;;;;;;4440942;32;20169;-80
2021/08/28 09:48:11;;;;;;;18.40;11.63;;;18.50;99.90;;;;;;4440739;32;20142;-81
2021/08/28 09:50:41;;;;;;;16.00;10.93;;;18.60;99.90;;;;;;4444336;32;20147;-83
2021/08/28 09:53:10;;;;;;;15.37;9.80;;;18.80;99.90;;;;;;4449797;32;20204;-77
2021/08/28 09:55:39;;;;;;;17.07;11.47;;;18.80;99.90;;;;;;4452671;32;20422;-76
2021/08/28 09:58:10;;;;;;;16.70;10.70;;;18.70;99.90;;;;;;4456604;32;20167;-77
2021/08/28 10:00:43;;;;;;;14.70;9.60;;;18.70;99.90;;;;;;4455780;32;20151;-77
2021/08/28 10:03:10;;;;;;;17.07;10.83;;;18.80;99.90;;;;;;4456611;32;20123;-77
2021/08/28 10:05:38;;;;;;;13.63;9.97;;;18.90;99.90;;;;;;4455950;32;20221;-77
2021/08/28 10:08:08;;;;;;;17.80;10.63;;;18.80;99.90;;;;;;4455614;32;20193;-77
2021/08/28 10:10:37;;;;;;;15.43;9.53;;;18.90;99.90;;;;;;4454787;32;20142;-75
2021/08/28 10:13:24;;;;;;;13.53;9.30;;;18.90;99.90;;;;;;4454986;32;20417;-77
2021/08/28 10:15:51;;;;;;;13.30;9.30;;;19.00;99.90;;;;;;4454827;32;20210;-77
2021/08/28 10:18:19;;;;;;;13.43;8.40;;;19.00;99.90;;;;;;4454822;32;20149;-77
2021/08/28 10:20:47;;;;;;;11.33;8.33;;;19.10;99.90;;;;;;4455701;32;20154;-76
2021/08/28 10:23:18;;;;;;;9.77;7.23;;;19.10;99.90;;;;;;4454883;32;20443;-76
2021/08/28 10:25:47;;;;;;;10.93;7.73;;;19.10;99.90;;;;;;4453940;32;20190;-76
2021/08/28 10:28:14;;;;;;;11.97;7.70;;;19.20;99.90;;;;;;4454345;32;20153;-76
2021/08/28 10:30:42;;;;;;;11.70;7.00;;;19.10;99.90;;;;;;4456366;32;20174;-76
2021/08/28 10:33:09;;;;;;;9.40;7.07;;;19.00;99.90;;;;;;4456783;32;20368;-76
2021/08/28 10:35:37;;;;;;;12.27;7.40;;;18.90;99.90;;;;;;4456146;32;20176;-76
2021/08/28 10:38:07;;;;;;;11.23;6.80;;;18.90;99.90;;;;;;4454529;32;20492;-76
2021/08/28 10:40:34;;;;;;;9.13;6.63;;;19.10;99.90;;;;;;4456605;32;20122;-76
2021/08/28 10:43:07;;;;;;;9.47;5.90;;;19.20;99.90;;;;;;4456365;32;20162;-75
2021/08/28 10:45:36;;;;;;;8.20;5.37;;;19.20;99.90;;;;;;4456592;32;20460;-76
2021/08/28 10:48:06;;;;;;;7.03;4.60;;;19.40;99.90;;;;;;4454277;32;20167;-76
2021/08/28 10:50:36;;;;;;;6.73;4.70;;;19.60;99.90;;;;;;4454412;32;20130;-75
2021/08/28 10:53:04;;;;;;;7.40;4.17;;;19.80;99.90;;;;;;4449310;32;20403;-76
2021/08/28 10:55:44;;;;;;;5.73;4.10;;;19.90;99.90;;;;;;4439025;32;20170;-74
2021/08/28 10:58:17;;;;;;;6.47;4.60;;;19.60;99.90;;;;;;4438491;32;20134;-76
2021/08/28 11:00:51;;;;;;;7.07;4.20;;;19.60;99.90;;;;;;4438051;32;20384;-74
2021/08/28 11:03:30;;;;;;;6.63;4.53;;;19.70;99.90;;;;;;4445329;32;20179;-75
2021/08/28 11:06:16;;;;;;;5.83;4.17;;;19.80;99.90;;;;;;4453663;32;20138;-74
2021/08/28 11:08:53;;;;;;;5.23;4.33;;;19.80;99.90;;;;;;4452700;32;20162;-75
2021/08/28 11:11:27;;;;;;;8.73;5.17;;;19.90;99.90;;;;;;4455510;32;20350;-76
2021/08/28 11:14:09;;;;;;;5.47;3.90;;;19.90;99.90;;;;;;4453154;32;20197;-76
2021/08/28 11:16:42;;;;;;;7.33;4.80;;;20.00;99.90;;;;;;4455387;32;20130;-74
2021/08/28 11:19:11;;;;;;;6.70;4.63;;;20.10;99.90;;;;;;4455225;32;20175;-74
2021/08/28 11:21:43;;;;;;;5.73;4.10;;;19.90;99.90;;;;;;4455190;32;20122;-76
2021/08/28 11:24:18;;;;;;;6.23;4.13;;;19.80;99.90;;;;;;4454714;32;20413;-75
2021/08/28 11:26:56;;;;;;;5.47;4.07;;;20.00;99.90;;;;;;4454042;32;20506;-76
2021/08/28 11:29:31;;;;;;;6.43;4.47;;;20.20;99.90;;;;;;4454879;32;20134;-74
2021/08/28 11:32:12;;;;;;;6.90;4.33;;;20.40;99.90;;;;;;4455491;32;20206;-73
2021/08/28 11:34:45;;;;;;;5.17;4.37;;;20.30;99.90;;;;;;4453788;32;20169;-73
2021/08/28 11:37:30;;;;;;;5.43;4.40;;;20.20;99.90;;;;;;4454248;32;20126;-74
2021/08/28 11:40:23;;;;;;;5.40;4.10;;;20.30;99.90;;;;;;4456066;32;20204;-74
2021/08/28 11:42:50;;;;;;;5.57;4.00;;;20.40;99.90;;;;;;4457931;32;20138;-74
2021/08/28 11:45:19;;;;;;;6.73;4.30;;;20.40;99.90;;;;;;4458790;32;20123;-74
2021/08/28 11:47:46;;;;;;;5.70;4.40;;;20.40;99.90;;;;;;4455734;32;20515;-74
2021/08/28 11:50:13;;;;;;;5.60;4.10;;;20.10;99.90;;;;;;4457973;32;20200;-74
2021/08/28 11:52:41;;;;;;;7.07;4.13;;;20.00;99.90;;;;;;4458176;32;20127;-76
2021/08/28 11:55:10;;;;;;;5.73;3.97;;;20.20;99.90;;;;;;4456441;32;20161;-75
2021/08/28 11:57:37;;;;;;;5.60;3.90;;;20.30;99.90;;;;;;4457019;32;20236;-76
2021/08/28 12:00:06;;;;;;;5.20;4.30;;;20.50;99.90;;;;;;4458438;32;20456;-74
2021/08/28 12:02:33;;;;;;;6.40;4.40;;;20.60;99.90;;;;;;4458643;32;20123;-75
2021/08/28 12:05:12;;;;;;;5.80;4.40;;;20.50;99.90;;;;;;4453167;32;20143;-74
2021/08/28 12:07:40;;;;;;;5.87;4.37;;;20.60;99.90;;;;;;4444418;32;20424;-75
2021/08/28 12:10:09;;;;;;;6.00;4.30;;;20.80;99.90;;;;;;4440085;32;20420;-75
2021/08/28 12:12:35;;;;;;;5.53;4.30;;;21.10;99.90;;;;;;4440228;32;20153;-75
2021/08/28 12:15:05;;;;;;;6.17;4.17;;;21.10;99.90;;;;;;4441847;32;20138;-75
2021/08/28 12:17:32;;;;;;;6.53;3.97;;;21.20;99.90;;;;;;4440222;32;20182;-76
2021/08/28 12:20:00;;;;;;;5.90;4.57;;;21.40;99.90;;;;;;4442156;32;20409;-74
2021/08/28 12:22:27;;;;;;;5.40;4.00;;;21.50;99.90;;;;;;4440754;32;20440;-74
2021/08/28 12:24:56;;;;;;;5.37;4.10;;;21.50;99.90;;;;;;4441515;32;20154;-75
2021/08/28 12:27:23;;;;;;;5.50;4.50;;;21.30;99.90;;;;;;4440915;32;20175;-76
2021/08/28 12:29:52;;;;;;;6.60;3.87;;;21.40;99.90;;;;;;4441916;32;20162;-76
2021/08/28 12:32:21;;;;;;;4.97;3.67;;;21.50;99.90;;;;;;4440509;32;20399;-74
2021/08/28 12:34:53;;;;;;;5.93;4.37;;;21.70;99.90;;;;;;4440185;32;20139;-74
2021/08/28 12:37:22;;;;;;;5.20;4.03;;;21.90;99.90;;;;;;4441503;32;20119;-74
2021/08/28 12:40:02;;;;;;;4.43;3.73;;;21.50;99.90;;;;;;4440541;32;20165;-73